« Back
NWS Peachtree City, Ga » Text Product » MCN Terminal Aerodrome Forecast


Printer-friendly Version
Current Version              Previous Versions:   1  2  3  4  5  6  7  8  9  

Terminal Aerodrome Forecast

124
FTUS42 KFFC 221700
TAFMCN
TAF
KMCN 221722Z 2218/2318 02006KT P6SM SKC
     FM230000 00000KT P6SM SKC
     FM231600 35003KT P6SM SKC=

USA.gov is the U.S. government's official web portal to all federal, state and local government web resources and services.